createdAt,value
2019-02-15T00:00:16.610Z,70.94
2019-02-15T00:02:50.778Z,71.01
2019-02-15T00:05:20.841Z,70.77
2019-02-15T00:07:49.103Z,71.12
2019-02-15T00:10:17.498Z,70.94
2019-02-15T00:12:45.839Z,70.84
2019-02-15T00:15:14.159Z,70.69
2019-02-15T00:21:20.217Z,70.65
2019-02-15T00:23:48.479Z,70.35
2019-02-15T00:26:16.889Z,70.66
2019-02-15T00:28:45.208Z,70.86
2019-02-15T00:31:15.118Z,71.05
2019-02-15T00:33:43.489Z,71.09
2019-02-15T00:36:11.763Z,71.10
2019-02-15T00:38:41.651Z,70.88
2019-02-15T00:41:09.911Z,70.80
2019-02-15T00:43:38.171Z,70.93
2019-02-15T00:46:14.009Z,70.91
2019-02-15T00:48:42.301Z,70.95
2019-02-15T00:51:12.203Z,70.79
2019-02-15T00:59:21.919Z,71.04
2019-02-15T01:01:54.559Z,71.07
2019-02-15T01:04:33.217Z,71.15
2019-02-15T01:07:03.140Z,71.10
2019-02-15T01:09:35.853Z,70.98
2019-02-15T01:12:05.810Z,71.00
2019-02-15T01:14:34.061Z,70.99
2019-02-15T01:17:02.402Z,70.99
2019-02-15T01:19:31.021Z,70.97
2019-02-15T01:21:59.296Z,71.03
2019-02-15T01:24:27.575Z,70.97
2019-02-15T01:26:57.471Z,70.89
2019-02-15T01:29:29.845Z,70.89
2019-02-15T01:32:02.184Z,70.92
2019-02-15T01:34:46.987Z,71.14
2019-02-15T01:37:31.841Z,71.06
2019-02-15T01:40:04.245Z,71.03
2019-02-15T01:42:34.215Z,71.36
2019-02-15T01:47:49.015Z,70.82
2019-02-15T01:50:17.312Z,70.73
2019-02-15T01:52:45.569Z,71.03
2019-02-15T01:55:13.840Z,71.45
2019-02-15T01:57:42.133Z,71.55
2019-02-15T02:00:13.106Z,71.55
2019-02-15T02:02:41.393Z,71.72
2019-02-15T02:05:09.642Z,71.57
2019-02-15T02:08:33.780Z,71.82
2019-02-15T02:11:02.054Z,71.71
2019-02-15T02:13:30.322Z,71.53
2019-02-15T02:15:58.598Z,71.43
2019-02-15T02:18:26.884Z,71.67
2019-02-15T02:20:55.172Z,71.82
2019-02-15T02:23:23.440Z,71.56
2019-02-15T02:25:51.725Z,71.51
2019-02-15T02:28:19.988Z,71.74
2019-02-15T02:30:48.230Z,71.54
2019-02-15T02:33:16.562Z,71.41
2019-02-15T02:35:45.222Z,71.49
2019-02-15T02:38:15.160Z,71.70
2019-02-15T02:40:43.436Z,71.73
2019-02-15T02:43:11.693Z,71.79
2019-02-15T02:45:39.948Z,71.69
2019-02-15T02:48:08.226Z,71.31
2019-02-15T02:50:36.480Z,71.28
2019-02-15T02:53:04.745Z,71.20
2019-02-15T02:55:33.011Z,71.17
2019-02-15T02:58:01.269Z,71.03
2019-02-15T03:00:33.565Z,71.27
2019-02-15T03:02:59.530Z,71.72
2019-02-15T03:05:27.782Z,71.54
2019-02-15T03:07:56.054Z,71.42
2019-02-15T03:10:24.301Z,71.28
2019-02-15T03:12:52.585Z,71.26
2019-02-15T03:15:20.843Z,71.49
2019-02-15T03:17:49.149Z,71.63
2019-02-15T03:20:17.428Z,71.61
2019-02-15T03:22:45.714Z,71.79
2019-02-15T03:25:13.959Z,71.45
2019-02-15T03:27:42.241Z,71.41
2019-02-15T03:30:10.527Z,71.56
2019-02-15T03:32:38.782Z,71.60
2019-02-15T03:35:09.066Z,71.50
2019-02-15T03:37:39.212Z,71.51
2019-02-15T03:40:10.261Z,71.94
2019-02-15T03:42:38.531Z,71.83
2019-02-15T03:45:08.324Z,71.91
2019-02-15T03:47:37.238Z,72.07
2019-02-15T03:50:07.946Z,72.11
2019-02-15T03:52:36.205Z,72.26
2019-02-15T03:55:05.901Z,72.61
2019-02-15T03:57:36.217Z,72.45
2019-02-15T04:00:07.135Z,72.23
2019-02-15T04:02:35.436Z,72.22
2019-02-15T04:05:03.871Z,72.43
2019-02-15T04:07:32.179Z,72.20
2019-02-15T04:10:00.518Z,71.97
2019-02-15T04:12:28.855Z,71.52
2019-02-15T04:14:57.123Z,71.33
2019-02-15T04:17:25.421Z,71.40
2019-02-15T04:19:53.694Z,71.34
2019-02-15T04:22:22.000Z,71.49
2019-02-15T04:24:50.301Z,71.52
2019-02-15T04:27:20.213Z,71.56
2019-02-15T04:29:48.589Z,71.91
2019-02-15T04:32:18.919Z,71.88
2019-02-15T04:34:46.942Z,71.55
2019-02-15T04:37:15.221Z,71.32
2019-02-15T04:39:43.548Z,71.56
2019-02-15T04:42:11.827Z,71.90
2019-02-15T04:44:42.807Z,71.71
2019-02-15T04:47:10.089Z,71.61
2019-02-15T04:49:38.381Z,71.58
2019-02-15T04:52:06.631Z,71.38
2019-02-15T04:54:34.946Z,71.40
2019-02-15T04:57:11.049Z,71.30
2019-02-15T04:59:39.623Z,71.22
2019-02-15T05:02:07.880Z,71.18
2019-02-15T05:04:36.158Z,70.92
2019-02-15T05:07:04.419Z,70.99
2019-02-15T05:09:32.700Z,70.97
2019-02-15T05:12:00.968Z,70.87
2019-02-15T05:14:29.240Z,70.47
2019-02-15T05:16:58.624Z,70.88
2019-02-15T05:19:27.660Z,70.79
2019-02-15T05:21:55.911Z,71.14
2019-02-15T05:24:24.181Z,70.94
2019-02-15T05:26:52.527Z,70.61
2019-02-15T05:29:20.882Z,70.91
2019-02-15T05:31:49.157Z,70.98
2019-02-15T05:34:17.420Z,71.31
2019-02-15T05:36:45.708Z,71.07
2019-02-15T05:39:14.117Z,71.25
2019-02-15T05:41:42.430Z,71.62
2019-02-15T05:44:10.690Z,71.91
2019-02-15T05:46:38.975Z,71.63
2019-02-15T05:49:07.234Z,71.93
2019-02-15T05:51:35.515Z,71.55
2019-02-15T05:54:03.768Z,71.30
2019-02-15T05:56:32.047Z,71.20
2019-02-15T05:59:00.299Z,71.09
2019-02-15T06:01:29.268Z,71.19
2019-02-15T06:03:57.528Z,71.48
2019-02-15T06:06:28.483Z,71.27
2019-02-15T06:08:59.739Z,71.28
2019-02-15T06:11:28.023Z,71.22
2019-02-15T06:13:56.280Z,71.06
2019-02-15T06:16:24.560Z,71.31
2019-02-15T06:18:54.909Z,71.14
2019-02-15T06:21:22.866Z,71.28
2019-02-15T06:23:52.881Z,71.42
2019-02-15T06:26:21.143Z,71.12
2019-02-15T06:28:50.534Z,71.01
2019-02-15T06:31:18.815Z,70.98
2019-02-15T06:33:47.096Z,70.84
2019-02-15T06:36:15.373Z,71.01
2019-02-15T06:38:43.647Z,71.14
2019-02-15T06:41:12.522Z,71.47
2019-02-15T06:43:41.074Z,71.83
2019-02-15T06:46:09.328Z,71.85
2019-02-15T06:48:37.619Z,71.83
2019-02-15T06:51:05.919Z,71.48
2019-02-15T06:53:35.904Z,71.51
2019-02-15T06:56:04.151Z,71.70
2019-02-15T06:58:32.417Z,71.60
2019-02-15T07:01:14.657Z,71.48
2019-02-15T07:03:53.325Z,71.51
2019-02-15T07:06:21.595Z,71.56
2019-02-15T07:08:49.843Z,71.68
2019-02-15T07:11:18.120Z,71.84
2019-02-15T07:13:46.381Z,72.17
2019-02-15T07:16:14.678Z,72.18
2019-02-15T07:18:47.667Z,72.26
2019-02-15T07:21:15.887Z,72.12
2019-02-15T07:23:44.161Z,72.04
2019-02-15T07:26:12.519Z,72.09
2019-02-15T07:28:40.783Z,72.24
2019-02-15T07:31:09.076Z,72.22
2019-02-15T07:33:37.545Z,72.34
2019-02-15T07:36:05.821Z,72.54
2019-02-15T07:38:34.067Z,72.57
2019-02-15T07:41:07.041Z,72.48
2019-02-15T07:43:35.301Z,72.10
2019-02-15T07:46:03.583Z,71.98
2019-02-15T07:48:31.916Z,69.90
2019-02-15T07:51:09.310Z,68.37
2019-02-15T07:53:31.796Z,67.66
2019-02-15T07:56:00.096Z,66.37
2019-02-15T07:58:28.365Z,65.10
2019-02-15T08:00:56.652Z,63.98
2019-02-15T08:03:24.923Z,62.13
2019-02-15T08:05:53.205Z,61.10
2019-02-15T08:08:21.473Z,59.08
2019-02-15T08:10:50.390Z,56.41
2019-02-15T08:13:18.625Z,54.88
2019-02-15T08:15:52.110Z,52.60
2019-02-15T08:18:17.189Z,52.06
2019-02-15T08:20:45.466Z,52.32
2019-02-15T08:23:13.745Z,50.57
2019-02-15T08:25:42.000Z,49.02
2019-02-15T08:28:10.297Z,47.41
2019-02-15T08:30:38.605Z,45.63
2019-02-15T08:33:06.882Z,44.04
2019-02-15T08:35:35.109Z,43.91
2019-02-15T08:38:03.411Z,42.37
2019-02-15T08:40:31.655Z,42.89
2019-02-15T08:42:59.950Z,43.04
2019-02-15T08:45:28.216Z,41.02
2019-02-15T08:47:56.498Z,39.10
2019-02-15T08:50:24.952Z,39.03
2019-02-15T08:52:55.075Z,37.89
2019-02-15T08:55:23.262Z,37.04
2019-02-15T08:57:51.568Z,37.51
2019-02-15T09:00:19.855Z,38.15
2019-02-15T09:02:48.109Z,37.25
2019-02-15T09:05:16.395Z,36.99
2019-02-15T09:07:44.663Z,35.43
2019-02-15T09:10:13.795Z,33.84
2019-02-15T09:12:42.042Z,33.45
2019-02-15T09:15:13.442Z,32.16
2019-02-15T09:17:41.746Z,32.63
2019-02-15T09:20:11.678Z,30.27
2019-02-15T09:22:39.968Z,30.15
2019-02-15T09:25:10.107Z,29.37
2019-02-15T09:27:39.992Z,29.89
2019-02-15T09:30:11.378Z,29.07
2019-02-15T09:32:39.670Z,28.50
2019-02-15T09:35:10.185Z,29.57
2019-02-15T09:37:38.461Z,27.80
2019-02-15T09:40:09.084Z,28.60
2019-02-15T09:42:37.364Z,27.41
2019-02-15T09:45:08.922Z,27.77
2019-02-15T09:47:37.188Z,28.83
2019-02-15T09:50:09.749Z,29.40
2019-02-15T09:52:38.272Z,27.63
2019-02-15T09:55:06.546Z,29.38
2019-02-15T09:57:34.830Z,30.62
2019-02-15T10:00:03.156Z,30.60
2019-02-15T10:02:31.449Z,32.39
2019-02-15T10:04:59.698Z,32.22
2019-02-15T10:07:27.972Z,34.47
2019-02-15T10:09:56.238Z,34.95
2019-02-15T10:12:24.509Z,34.33
2019-02-15T10:14:52.936Z,35.79
2019-02-15T10:17:21.193Z,35.76
2019-02-15T10:19:49.440Z,37.11
2019-02-15T10:22:17.747Z,37.11
2019-02-15T10:24:46.000Z,37.55
2019-02-15T10:27:14.288Z,37.55
2019-02-15T10:29:42.562Z,38.78
2019-02-15T10:32:10.821Z,37.87
2019-02-15T10:34:39.085Z,38.02
2019-02-15T10:37:07.391Z,36.58
2019-02-15T10:39:35.654Z,37.07
2019-02-15T10:42:03.951Z,36.06
2019-02-15T10:44:32.253Z,34.53
2019-02-15T10:47:00.504Z,34.12
2019-02-15T10:49:28.779Z,35.51
2019-02-15T10:51:57.020Z,35.69
2019-02-15T10:54:25.299Z,36.45
2019-02-15T10:56:53.645Z,37.50
2019-02-15T10:59:22.024Z,36.60
2019-02-15T11:01:50.285Z,37.26
2019-02-15T11:04:18.645Z,37.51
2019-02-15T11:06:46.913Z,35.95
2019-02-15T11:09:15.202Z,36.74
2019-02-15T11:11:43.869Z,37.63
2019-02-15T11:14:12.125Z,38.08
2019-02-15T11:16:47.017Z,36.17
2019-02-15T11:19:10.388Z,35.81
2019-02-15T11:21:38.650Z,36.12
2019-02-15T11:24:06.933Z,37.88
2019-02-15T11:26:35.192Z,36.93
2019-02-15T11:29:03.653Z,37.54
2019-02-15T11:31:31.957Z,37.12
2019-02-15T11:34:00.230Z,37.96
2019-02-15T11:36:29.845Z,34.15
2019-02-15T11:38:58.247Z,33.95
2019-02-15T11:41:26.489Z,35.44
2019-02-15T11:43:54.778Z,34.78
2019-02-15T11:46:23.040Z,34.80
2019-02-15T11:48:51.319Z,33.27
2019-02-15T11:51:19.597Z,34.01
2019-02-15T11:53:48.128Z,34.95
2019-02-15T11:56:16.383Z,35.43
2019-02-15T11:58:44.689Z,33.50
2019-02-15T12:01:12.939Z,34.09
2019-02-15T12:03:41.210Z,34.67
2019-02-15T12:06:09.467Z,35.41
2019-02-15T12:08:37.935Z,34.30
2019-02-15T12:11:06.200Z,33.45
2019-02-15T12:13:34.469Z,33.73
2019-02-15T12:16:02.741Z,34.04
2019-02-15T12:18:31.017Z,33.22
2019-02-15T12:20:59.314Z,34.09
2019-02-15T12:23:28.534Z,35.22
2019-02-15T12:25:56.928Z,32.84
2019-02-15T12:28:25.180Z,34.10
2019-02-15T12:30:53.481Z,32.38
2019-02-15T12:33:21.776Z,32.69
2019-02-15T12:35:50.063Z,34.03
2019-02-15T12:38:18.309Z,34.32
2019-02-15T12:40:46.575Z,34.07
2019-02-15T12:43:14.847Z,33.07
2019-02-15T12:45:43.122Z,35.54
2019-02-15T12:48:11.403Z,34.73
2019-02-15T12:50:39.712Z,35.33
2019-02-15T12:53:07.963Z,34.71
2019-02-15T12:55:36.271Z,35.23
2019-02-15T12:58:04.537Z,35.24
2019-02-15T13:00:33.321Z,35.78
2019-02-15T13:03:01.632Z,35.45
2019-02-15T13:05:29.915Z,36.90
2019-02-15T13:07:58.249Z,35.92
2019-02-15T13:10:28.197Z,36.68
2019-02-15T13:12:56.476Z,34.87
2019-02-15T13:15:24.896Z,34.25
2019-02-15T13:17:53.177Z,34.63
2019-02-15T13:20:21.503Z,32.80
2019-02-15T13:22:50.137Z,32.40
2019-02-15T13:25:18.425Z,30.32
2019-02-15T13:27:46.717Z,31.69
2019-02-15T13:30:16.417Z,31.90
2019-02-15T13:32:44.773Z,31.19
2019-02-15T13:35:18.828Z,30.38
2019-02-15T13:37:47.132Z,31.74
2019-02-15T13:40:15.399Z,30.27
2019-02-15T13:42:43.670Z,32.47
2019-02-15T13:45:13.023Z,31.67
2019-02-15T13:47:41.317Z,33.06
2019-02-15T13:50:14.708Z,32.53
2019-02-15T13:52:42.991Z,31.83
2019-02-15T13:55:11.435Z,32.11
2019-02-15T13:57:39.849Z,32.51
2019-02-15T14:00:11.630Z,32.50
2019-02-15T14:02:39.905Z,29.20
2019-02-15T14:05:10.450Z,32.13
2019-02-15T14:07:38.745Z,30.47
2019-02-15T14:10:11.721Z,30.32
2019-02-15T14:12:40.069Z,31.12
2019-02-15T14:15:09.765Z,32.19
2019-02-15T14:17:45.305Z,31.31
2019-02-15T14:20:13.156Z,32.28
2019-02-15T14:22:43.074Z,31.68
2019-02-15T14:25:12.074Z,31.74
2019-02-15T14:27:40.349Z,31.95
2019-02-15T14:30:11.861Z,31.95
2019-02-15T14:32:40.129Z,32.17
2019-02-15T14:35:10.616Z,32.19
2019-02-15T14:37:41.897Z,32.47
2019-02-15T14:40:12.846Z,32.02
2019-02-15T14:42:41.140Z,30.50
2019-02-15T14:45:11.613Z,30.72
2019-02-15T14:47:39.877Z,31.18
2019-02-15T14:50:09.400Z,31.17
2019-02-15T14:52:40.644Z,32.34
2019-02-15T14:55:10.057Z,32.89
2019-02-15T14:57:38.308Z,32.51
2019-02-15T15:00:16.080Z,32.26
2019-02-15T15:02:44.385Z,33.94
2019-02-15T15:05:13.324Z,33.16
2019-02-15T15:07:41.680Z,34.07
2019-02-15T15:10:10.979Z,33.21
2019-02-15T15:12:39.229Z,33.02
2019-02-15T15:15:11.640Z,33.69
2019-02-15T15:17:40.248Z,35.06
2019-02-15T15:20:10.576Z,34.79
2019-02-15T15:22:38.829Z,35.20
2019-02-15T15:25:13.267Z,35.42
2019-02-15T15:27:43.127Z,35.69
2019-02-15T15:30:13.990Z,36.37
2019-02-15T15:32:42.313Z,35.82
2019-02-15T15:35:11.729Z,36.21
2019-02-15T15:37:40.004Z,35.97
2019-02-15T15:40:12.885Z,36.13
2019-02-15T15:42:41.167Z,35.95
2019-02-15T15:45:11.160Z,35.57
2019-02-15T15:47:39.469Z,35.33
2019-02-15T15:50:09.880Z,35.65
2019-02-15T15:52:38.254Z,36.25
2019-02-15T15:55:08.627Z,35.99
2019-02-15T15:57:36.985Z,35.73
2019-02-15T16:00:08.018Z,35.04
2019-02-15T16:02:37.513Z,34.94
2019-02-15T16:05:09.075Z,34.75
2019-02-15T16:07:38.283Z,34.46
2019-02-15T16:10:09.377Z,34.50
2019-02-15T16:12:39.541Z,33.79
2019-02-15T16:15:12.868Z,33.12
2019-02-15T16:17:41.141Z,33.50
2019-02-15T16:20:11.031Z,33.62
2019-02-15T16:22:39.314Z,34.70
2019-02-15T16:25:08.623Z,35.99
2019-02-15T16:27:36.929Z,36.99
2019-02-15T16:30:11.430Z,37.92
2019-02-15T16:32:41.181Z,38.94
2019-02-15T16:35:09.701Z,39.52
2019-02-15T16:37:37.959Z,40.22
2019-02-15T16:40:12.003Z,41.17
2019-02-15T16:42:40.315Z,41.56
2019-02-15T16:45:13.062Z,41.96
2019-02-15T16:47:41.500Z,42.45
2019-02-15T16:50:09.896Z,42.79
2019-02-15T16:52:38.172Z,43.42
2019-02-15T16:55:12.801Z,43.58
2019-02-15T16:57:37.957Z,44.04
2019-02-15T17:00:09.314Z,44.19
2019-02-15T17:02:37.593Z,44.46
2019-02-15T17:05:06.702Z,44.57
2019-02-15T17:07:34.994Z,45.16
2019-02-15T17:10:03.712Z,45.36
2019-02-15T17:12:31.965Z,45.48
2019-02-15T17:15:00.289Z,45.08
2019-02-15T17:17:28.549Z,45.83
2019-02-15T17:19:56.815Z,46.21
2019-02-15T17:22:25.066Z,46.47
2019-02-15T17:24:53.463Z,46.87
2019-02-15T17:27:21.711Z,47.16
2019-02-15T17:29:50.082Z,47.39
2019-02-15T17:32:18.339Z,47.30
2019-02-15T17:34:46.646Z,47.46
2019-02-15T17:37:14.911Z,47.74
2019-02-15T17:39:43.183Z,48.00
2019-02-15T17:42:11.436Z,48.31
2019-02-15T17:44:39.711Z,48.60
2019-02-15T17:47:07.970Z,48.79
2019-02-15T17:49:36.235Z,49.02
2019-02-15T17:52:04.473Z,49.26
2019-02-15T17:54:32.755Z,49.10
2019-02-15T17:57:01.013Z,49.39
2019-02-15T17:59:29.684Z,49.51
2019-02-15T18:01:58.007Z,49.85
2019-02-15T18:04:26.372Z,49.74
2019-02-15T18:06:54.628Z,50.06
2019-02-15T18:09:22.938Z,50.21
2019-02-15T18:11:51.202Z,50.55
2019-02-15T18:14:19.521Z,50.78
2019-02-15T18:16:48.123Z,51.13
2019-02-15T18:19:16.431Z,50.94
2019-02-15T18:21:44.695Z,51.33
2019-02-15T18:24:12.988Z,51.37
2019-02-15T18:26:41.250Z,51.58
2019-02-15T18:29:09.521Z,51.62
2019-02-15T18:31:37.768Z,51.99
2019-02-15T18:34:06.035Z,52.15
2019-02-15T18:36:34.288Z,52.82
2019-02-15T18:39:02.831Z,52.98
2019-02-15T18:41:31.079Z,53.31
2019-02-15T18:43:59.420Z,53.39
2019-02-15T18:46:27.714Z,53.66
2019-02-15T18:48:55.966Z,53.98
2019-02-15T18:51:24.254Z,54.27
2019-02-15T18:53:52.527Z,54.21
2019-02-15T18:56:20.795Z,54.35
2019-02-15T18:58:49.045Z,54.58
2019-02-15T19:01:17.382Z,54.75
2019-02-15T19:03:45.666Z,54.84
2019-02-15T19:06:13.958Z,55.27
2019-02-15T19:08:45.331Z,55.28
2019-02-15T19:11:13.612Z,55.42
2019-02-15T19:13:41.902Z,55.52
2019-02-15T19:16:10.243Z,55.52
2019-02-15T19:18:38.650Z,55.52
2019-02-15T19:21:07.376Z,55.44
2019-02-15T19:23:40.880Z,55.66
2019-02-15T19:26:09.198Z,55.88
2019-02-15T19:28:37.466Z,55.91
2019-02-15T19:31:08.703Z,56.07
2019-02-15T19:33:37.039Z,56.06
2019-02-15T19:36:05.536Z,56.45
2019-02-15T19:38:38.987Z,56.89
2019-02-15T19:41:07.246Z,57.50
2019-02-15T19:43:35.533Z,57.33
2019-02-15T19:46:03.803Z,57.24
2019-02-15T19:48:32.091Z,57.06
2019-02-15T19:51:00.354Z,57.20
2019-02-15T19:53:28.640Z,57.07
2019-02-15T19:55:56.906Z,56.88
2019-02-15T19:58:25.144Z,57.10
2019-02-15T20:00:53.429Z,57.17
2019-02-15T20:03:21.696Z,57.23
2019-02-15T20:05:49.995Z,57.34
2019-02-15T20:08:18.241Z,57.42
2019-02-15T20:10:46.524Z,57.82
2019-02-15T20:13:14.803Z,58.09
2019-02-15T20:15:43.055Z,57.84
2019-02-15T20:18:11.320Z,58.19
2019-02-15T20:20:39.591Z,58.23
2019-02-15T20:23:09.581Z,57.91
2019-02-15T20:25:37.895Z,57.86
2019-02-15T20:28:13.760Z,57.93
2019-02-15T20:30:36.255Z,58.63
2019-02-15T20:33:04.498Z,58.56
2019-02-15T20:35:32.829Z,58.96
2019-02-15T20:38:01.169Z,59.50
2019-02-15T20:40:29.460Z,59.55
2019-02-15T20:42:57.719Z,59.73
2019-02-15T20:45:26.017Z,59.50
2019-02-15T20:47:54.315Z,59.62
2019-02-15T20:50:22.599Z,59.69
2019-02-15T20:52:50.894Z,59.80
2019-02-15T20:55:20.117Z,60.07
2019-02-15T20:57:48.390Z,60.09
2019-02-15T21:00:25.606Z,60.67
2019-02-15T21:02:53.945Z,60.80
2019-02-15T21:05:22.294Z,61.35
2019-02-15T21:07:50.573Z,61.45
2019-02-15T21:10:18.844Z,61.16
2019-02-15T21:12:47.844Z,61.36
2019-02-15T21:15:16.257Z,61.30
2019-02-15T21:17:44.553Z,61.59
2019-02-15T21:20:15.915Z,61.99
2019-02-15T21:22:44.196Z,61.72
2019-02-15T21:25:15.737Z,61.92
2019-02-15T21:27:44.040Z,61.56
2019-02-15T21:30:15.589Z,61.83
2019-02-15T21:32:44.063Z,61.44
2019-02-15T21:35:12.331Z,61.39
2019-02-15T21:37:40.639Z,61.37
2019-02-15T21:40:12.153Z,61.13
2019-02-15T21:42:40.431Z,61.12
2019-02-15T21:45:10.520Z,60.94
2019-02-15T21:47:38.855Z,61.03
2019-02-15T21:50:16.623Z,61.13
2019-02-15T21:52:44.224Z,61.39
2019-02-15T21:55:15.229Z,61.66
2019-02-15T21:57:43.503Z,61.76
2019-02-15T22:00:15.046Z,62.12
2019-02-15T22:02:43.322Z,61.96
2019-02-15T22:05:11.578Z,62.06
2019-02-15T22:07:39.855Z,62.16
2019-02-15T22:10:09.678Z,62.60
2019-02-15T22:12:37.978Z,62.56
2019-02-15T22:15:09.459Z,62.85
2019-02-15T22:17:37.735Z,62.77
2019-02-15T22:20:09.268Z,62.83
2019-02-15T22:22:37.553Z,63.08
2019-02-15T22:25:07.083Z,62.87
2019-02-15T22:27:35.402Z,62.77
2019-02-15T22:30:27.814Z,62.89
2019-02-15T22:32:56.073Z,62.90
2019-02-15T22:35:24.350Z,63.13
2019-02-15T22:37:52.734Z,63.21
2019-02-15T22:40:29.345Z,63.19
2019-02-15T22:43:09.168Z,63.20
2019-02-15T22:45:37.448Z,63.40
2019-02-15T22:48:07.405Z,63.62
2019-02-15T22:50:36.501Z,64.19
2019-02-15T22:53:04.921Z,64.11
2019-02-15T22:55:33.252Z,64.31
2019-02-15T22:58:01.527Z,63.96
2019-02-15T23:03:19.218Z,63.88
2019-02-15T23:05:47.476Z,63.84
2019-02-15T23:08:15.749Z,63.72
2019-02-15T23:10:44.082Z,63.78
2019-02-15T23:13:12.368Z,63.69
2019-02-15T23:15:40.626Z,63.88
2019-02-15T23:18:08.870Z,63.86
2019-02-15T23:20:44.929Z,63.93
2019-02-15T23:23:07.118Z,63.96
2019-02-15T23:25:35.391Z,63.91
2019-02-15T23:28:03.662Z,63.91
2019-02-15T23:30:31.934Z,64.01
2019-02-15T23:33:00.207Z,64.29
2019-02-15T23:35:28.464Z,64.71
2019-02-15T23:37:56.773Z,65.10
2019-02-15T23:40:25.018Z,64.96
2019-02-15T23:42:53.287Z,64.96
2019-02-15T23:45:21.552Z,64.96
2019-02-15T23:47:52.818Z,65.35
2019-02-15T23:50:24.128Z,65.07
2019-02-15T23:52:52.415Z,65.15
2019-02-15T23:55:20.667Z,65.36
2019-02-15T23:57:48.973Z,65.41
